sensor_id;sensor_type;location;lat;lon;timestamp;temperature;humidity
72646;DHT22;60687;53.876;10.674;2023-07-31T00:03:05;15.20;99.90
72646;DHT22;60687;53.876;10.674;2023-07-31T00:13:09;15.20;99.90
72646;DHT22;60687;53.876;10.674;2023-07-31T00:23:11;15.20;99.90
72646;DHT22;60687;53.876;10.674;2023-07-31T00:33:15;15.10;99.90
72646;DHT22;60687;53.876;10.674;2023-07-31T00:43:17;15.10;99.90
72646;DHT22;60687;53.876;10.674;2023-07-31T00:53:22;15.10;99.90
72646;DHT22;60687;53.876;10.674;2023-07-31T01:03:25;15.10;99.90
72646;DHT22;60687;53.876;10.674;2023-07-31T01:13:30;15.00;99.90
72646;DHT22;60687;53.876;10.674;2023-07-31T01:23:50;15.00;99.90
72646;DHT22;60687;53.876;10.674;2023-07-31T01:33:58;15.00;99.90
72646;DHT22;60687;53.876;10.674;2023-07-31T01:44:02;15.00;99.90
72646;DHT22;60687;53.876;10.674;2023-07-31T01:54:06;15.00;99.90
72646;DHT22;60687;53.876;10.674;2023-07-31T02:04:09;15.00;99.90
72646;DHT22;60687;53.876;10.674;2023-07-31T02:14:13;15.00;99.90
72646;DHT22;60687;53.876;10.674;2023-07-31T02:24:15;15.00;99.90
72646;DHT22;60687;53.876;10.674;2023-07-31T02:34:19;15.00;99.90
72646;DHT22;60687;53.876;10.674;2023-07-31T02:44:22;15.00;99.90
72646;DHT22;60687;53.876;10.674;2023-07-31T02:54:25;15.10;99.90
72646;DHT22;60687;53.876;10.674;2023-07-31T03:04:28;15.10;99.90
72646;DHT22;60687;53.876;10.674;2023-07-31T03:14:34;15.10;99.90
72646;DHT22;60687;53.876;10.674;2023-07-31T03:24:36;15.20;99.90
72646;DHT22;60687;53.876;10.674;2023-07-31T03:34:41;15.10;99.90
72646;DHT22;60687;53.876;10.674;2023-07-31T03:44:43;15.10;99.90
72646;DHT22;60687;53.876;10.674;2023-07-31T03:54:47;15.10;99.90
72646;DHT22;60687;53.876;10.674;2023-07-31T04:04:50;15.20;99.90
72646;DHT22;60687;53.876;10.674;2023-07-31T04:14:54;15.20;99.90
72646;DHT22;60687;53.876;10.674;2023-07-31T04:24:56;15.20;99.90
72646;DHT22;60687;53.876;10.674;2023-07-31T04:35:03;15.20;99.90
72646;DHT22;60687;53.876;10.674;2023-07-31T04:45:07;15.20;99.90
72646;DHT22;60687;53.876;10.674;2023-07-31T04:55:11;15.30;99.90
72646;DHT22;60687;53.876;10.674;2023-07-31T05:05:13;15.30;99.90
72646;DHT22;60687;53.876;10.674;2023-07-31T05:15:17;15.40;99.90
72646;DHT22;60687;53.876;10.674;2023-07-31T05:25:19;15.40;99.90
72646;DHT22;60687;53.876;10.674;2023-07-31T05:35:23;15.50;99.90
72646;DHT22;60687;53.876;10.674;2023-07-31T05:45:27;15.50;99.90
72646;DHT22;60687;53.876;10.674;2023-07-31T05:55:46;15.60;99.90
72646;DHT22;60687;53.876;10.674;2023-07-31T06:05:48;15.60;99.90
72646;DHT22;60687;53.876;10.674;2023-07-31T06:15:52;15.70;99.90
72646;DHT22;60687;53.876;10.674;2023-07-31T06:25:54;15.80;99.90
72646;DHT22;60687;53.876;10.674;2023-07-31T06:35:58;15.80;99.90
72646;DHT22;60687;53.876;10.674;2023-07-31T06:46:04;15.90;99.90
72646;DHT22;60687;53.876;10.674;2023-07-31T06:56:08;16.00;99.90
72646;DHT22;60687;53.876;10.674;2023-07-31T07:06:10;16.10;99.90
72646;DHT22;60687;53.876;10.674;2023-07-31T07:16:15;16.10;99.90
72646;DHT22;60687;53.876;10.674;2023-07-31T07:26:17;16.20;99.90
72646;DHT22;60687;53.876;10.674;2023-07-31T07:36:22;16.30;99.90
72646;DHT22;60687;53.876;10.674;2023-07-31T07:46:25;16.30;99.90
72646;DHT22;60687;53.876;10.674;2023-07-31T07:56:29;16.30;99.90
72646;DHT22;60687;53.876;10.674;2023-07-31T08:06:32;16.30;99.90
72646;DHT22;60687;53.876;10.674;2023-07-31T08:16:35;16.30;99.90
72646;DHT22;60687;53.876;10.674;2023-07-31T08:26:37;16.30;99.90
72646;DHT22;60687;53.876;10.674;2023-07-31T08:36:41;16.40;99.90
72646;DHT22;60687;53.876;10.674;2023-07-31T08:46:44;16.50;99.90
72646;DHT22;60687;53.876;10.674;2023-07-31T08:56:49;16.50;99.90
72646;DHT22;60687;53.876;10.674;2023-07-31T09:06:56;16.60;99.90
72646;DHT22;60687;53.876;10.674;2023-07-31T09:17:00;16.60;99.90
72646;DHT22;60687;53.876;10.674;2023-07-31T09:27:06;16.60;99.90
72646;DHT22;60687;53.876;10.674;2023-07-31T09:37:12;16.70;99.90
72646;DHT22;60687;53.876;10.674;2023-07-31T09:47:32;16.80;99.90
72646;DHT22;60687;53.876;10.674;2023-07-31T09:57:39;16.90;99.90
72646;DHT22;60687;53.876;10.674;2023-07-31T10:07:51;17.00;99.90
72646;DHT22;60687;53.876;10.674;2023-07-31T10:17:58;17.10;99.90
72646;DHT22;60687;53.876;10.674;2023-07-31T10:28:01;17.20;99.90
72646;DHT22;60687;53.876;10.674;2023-07-31T10:38:12;17.30;99.90
72646;DHT22;60687;53.876;10.674;2023-07-31T10:48:15;17.40;99.90
72646;DHT22;60687;53.876;10.674;2023-07-31T10:58:20;17.40;99.90
72646;DHT22;60687;53.876;10.674;2023-07-31T11:08:23;17.50;99.90
72646;DHT22;60687;53.876;10.674;2023-07-31T11:18:27;17.50;99.90
72646;DHT22;60687;53.876;10.674;2023-07-31T11:28:33;17.40;99.90
72646;DHT22;60687;53.876;10.674;2023-07-31T11:38:37;17.50;99.90
72646;DHT22;60687;53.876;10.674;2023-07-31T11:48:39;17.50;99.90
72646;DHT22;60687;53.876;10.674;2023-07-31T11:58:44;17.40;99.90
72646;DHT22;60687;53.876;10.674;2023-07-31T12:08:48;17.30;99.90
72646;DHT22;60687;53.876;10.674;2023-07-31T12:18:52;17.30;99.90
72646;DHT22;60687;53.876;10.674;2023-07-31T12:28:55;17.30;99.90
72646;DHT22;60687;53.876;10.674;2023-07-31T12:38:59;17.30;99.90
72646;DHT22;60687;53.876;10.674;2023-07-31T12:49:02;17.20;99.90
72646;DHT22;60687;53.876;10.674;2023-07-31T12:59:06;17.20;99.90
72646;DHT22;60687;53.876;10.674;2023-07-31T13:09:08;17.30;99.90
72646;DHT22;60687;53.876;10.674;2023-07-31T13:19:13;17.20;99.90
72646;DHT22;60687;53.876;10.674;2023-07-31T13:29:15;17.30;99.90
72646;DHT22;60687;53.876;10.674;2023-07-31T13:39:19;17.30;99.90
72646;DHT22;60687;53.876;10.674;2023-07-31T13:49:21;17.40;99.90
72646;DHT22;60687;53.876;10.674;2023-07-31T13:59:25;17.50;99.90
72646;DHT22;60687;53.876;10.674;2023-07-31T14:09:29;17.20;99.90
72646;DHT22;60687;53.876;10.674;2023-07-31T14:19:33;17.30;99.90
72646;DHT22;60687;53.876;10.674;2023-07-31T14:29:35;17.30;99.90
72646;DHT22;60687;53.876;10.674;2023-07-31T14:39:39;17.30;99.90
72646;DHT22;60687;53.876;10.674;2023-07-31T14:49:41;17.10;99.90
72646;DHT22;60687;53.876;10.674;2023-07-31T14:59:45;17.10;99.90
72646;DHT22;60687;53.876;10.674;2023-07-31T15:09:47;17.10;99.90
72646;DHT22;60687;53.876;10.674;2023-07-31T15:19:51;16.90;99.90
72646;DHT22;60687;53.876;10.674;2023-07-31T15:29:54;16.90;99.90
72646;DHT22;60687;53.876;10.674;2023-07-31T15:39:57;16.90;99.90
72646;DHT22;60687;53.876;10.674;2023-07-31T15:49:59;16.90;99.90
72646;DHT22;60687;53.876;10.674;2023-07-31T16:00:04;16.70;99.90
72646;DHT22;60687;53.876;10.674;2023-07-31T16:10:09;16.70;99.90
72646;DHT22;60687;53.876;10.674;2023-07-31T16:20:14;16.70;99.90
72646;DHT22;60687;53.876;10.674;2023-07-31T16:30:16;16.60;99.90
72646;DHT22;60687;53.876;10.674;2023-07-31T16:40:20;16.50;99.90
72646;DHT22;60687;53.876;10.674;2023-07-31T16:50:22;16.50;99.90
72646;DHT22;60687;53.876;10.674;2023-07-31T17:00:29;16.50;99.90
72646;DHT22;60687;53.876;10.674;2023-07-31T17:10:34;16.50;99.90
72646;DHT22;60687;53.876;10.674;2023-07-31T17:20:38;16.50;99.90
72646;DHT22;60687;53.876;10.674;2023-07-31T17:30:42;16.50;99.90
72646;DHT22;60687;53.876;10.674;2023-07-31T17:40:46;16.50;99.90
72646;DHT22;60687;53.876;10.674;2023-07-31T17:50:53;16.50;99.90
72646;DHT22;60687;53.876;10.674;2023-07-31T18:00:57;16.60;99.90
72646;DHT22;60687;53.876;10.674;2023-07-31T18:11:00;16.60;99.90
72646;DHT22;60687;53.876;10.674;2023-07-31T18:21:06;16.60;99.90
72646;DHT22;60687;53.876;10.674;2023-07-31T18:31:09;16.60;99.90
72646;DHT22;60687;53.876;10.674;2023-07-31T18:41:13;16.60;99.90
72646;DHT22;60687;53.876;10.674;2023-07-31T18:51:15;16.60;99.90
72646;DHT22;60687;53.876;10.674;2023-07-31T19:01:20;16.60;99.90
72646;DHT22;60687;53.876;10.674;2023-07-31T19:11:28;16.60;99.90
72646;DHT22;60687;53.876;10.674;2023-07-31T19:21:32;16.60;99.90
72646;DHT22;60687;53.876;10.674;2023-07-31T19:31:34;16.60;99.90
72646;DHT22;60687;53.876;10.674;2023-07-31T19:41:37;16.70;99.90
72646;DHT22;60687;53.876;10.674;2023-07-31T19:51:40;16.70;99.90
72646;DHT22;60687;53.876;10.674;2023-07-31T20:01:45;16.70;99.90
72646;DHT22;60687;53.876;10.674;2023-07-31T20:11:51;16.80;99.90
72646;DHT22;60687;53.876;10.674;2023-07-31T20:21:57;16.90;99.90
72646;DHT22;60687;53.876;10.674;2023-07-31T20:32:00;17.00;99.90
72646;DHT22;60687;53.876;10.674;2023-07-31T20:42:04;17.10;99.90
72646;DHT22;60687;53.876;10.674;2023-07-31T20:52:06;17.10;99.90
72646;DHT22;60687;53.876;10.674;2023-07-31T21:02:10;17.20;99.90
72646;DHT22;60687;53.876;10.674;2023-07-31T21:12:13;17.20;99.90
72646;DHT22;60687;53.876;10.674;2023-07-31T21:22:17;17.30;99.90
72646;DHT22;60687;53.876;10.674;2023-07-31T21:32:19;17.30;99.90
72646;DHT22;60687;53.876;10.674;2023-07-31T21:42:23;17.30;99.90
72646;DHT22;60687;53.876;10.674;2023-07-31T21:52:25;17.30;99.90
72646;DHT22;60687;53.876;10.674;2023-07-31T22:02:29;17.30;99.90
72646;DHT22;60687;53.876;10.674;2023-07-31T22:12:31;17.30;99.90
72646;DHT22;60687;53.876;10.674;2023-07-31T22:22:36;17.40;99.90
72646;DHT22;60687;53.876;10.674;2023-07-31T22:32:39;17.40;99.90
72646;DHT22;60687;53.876;10.674;2023-07-31T22:42:43;17.30;99.90
72646;DHT22;60687;53.876;10.674;2023-07-31T22:52:46;17.30;99.90
72646;DHT22;60687;53.876;10.674;2023-07-31T23:02:50;17.20;99.90
72646;DHT22;60687;53.876;10.674;2023-07-31T23:12:52;17.10;99.90
72646;DHT22;60687;53.876;10.674;2023-07-31T23:22:57;17.10;99.90
72646;DHT22;60687;53.876;10.674;2023-07-31T23:33:00;17.00;99.90
72646;DHT22;60687;53.876;10.674;2023-07-31T23:43:04;16.90;99.90
72646;DHT22;60687;53.876;10.674;2023-07-31T23:53:06;16.80;99.90
